createdAt,value
2022-10-26T00:01:09.305Z,97882.50
2022-10-26T00:03:37.560Z,97885.75
2022-10-26T00:06:06.547Z,97883.56
2022-10-26T00:08:33.652Z,97873.28
2022-10-26T00:11:02.092Z,97883.28
2022-10-26T00:13:29.360Z,97877.09
2022-10-26T00:15:56.518Z,97888.38
2022-10-26T00:18:23.877Z,97890.75
2022-10-26T00:20:51.291Z,97885.13
2022-10-26T00:23:18.382Z,97881.38
2022-10-26T00:25:45.473Z,97881.94
2022-10-26T00:28:13.892Z,97882.50
2022-10-26T00:30:40.986Z,97880.31
2022-10-26T00:33:12.705Z,97874.66
2022-10-26T00:35:45.936Z,97887.34
2022-10-26T00:38:13.578Z,97880.06
2022-10-26T00:40:40.748Z,97874.69
2022-10-26T00:43:16.396Z,97883.88
2022-10-26T00:45:44.317Z,97876.03
2022-10-26T00:48:20.418Z,97882.56
2022-10-26T00:50:48.040Z,97884.69
2022-10-26T00:53:15.964Z,97874.13
2022-10-26T00:55:47.092Z,97868.75
2022-10-26T00:58:16.291Z,97871.97
2022-10-26T01:00:43.998Z,97867.41
2022-10-26T01:03:11.460Z,97869.31
2022-10-26T01:05:40.852Z,97861.44
2022-10-26T01:08:08.650Z,97858.75
2022-10-26T01:10:38.969Z,97851.47
2022-10-26T01:13:06.556Z,97845.81
2022-10-26T01:15:46.775Z,97839.09
2022-10-26T01:18:22.381Z,97840.44
2022-10-26T01:21:12.829Z,97837.22
2022-10-26T01:23:58.835Z,97836.09
2022-10-26T01:29:51.969Z,97852.63
2022-10-26T01:32:26.924Z,97842.94
2022-10-26T01:35:00.262Z,97848.34
2022-10-26T01:37:30.864Z,97847.50
2022-10-26T01:40:06.475Z,97839.47
2022-10-26T01:42:38.343Z,97844.56
2022-10-26T01:45:09.762Z,97837.00
2022-10-26T01:47:39.648Z,97824.59
2022-10-26T01:50:08.698Z,97833.22
2022-10-26T01:52:35.785Z,97838.03
2022-10-26T01:55:06.503Z,97828.59
2022-10-26T01:57:37.216Z,97824.78
2022-10-26T02:00:07.822Z,97824.25
2022-10-26T02:03:00.446Z,97817.81
2022-10-26T02:05:36.935Z,97829.38
2022-10-26T02:08:18.899Z,97837.75
2022-10-26T02:11:10.366Z,97839.94
2022-10-26T02:13:45.824Z,97813.22
2022-10-26T02:16:20.761Z,97805.13
2022-10-26T02:18:57.451Z,97799.78
2022-10-26T02:21:29.632Z,97775.22
2022-10-26T02:23:59.413Z,97779.53
2022-10-26T02:26:30.754Z,97818.13
2022-10-26T02:29:04.104Z,97865.06
2022-10-26T02:31:32.449Z,97867.75
2022-10-26T02:34:05.527Z,97853.72
2022-10-26T02:36:36.547Z,97848.88
2022-10-26T02:39:05.747Z,97841.53
2022-10-26T02:41:33.909Z,97845.84
2022-10-26T02:44:06.504Z,97840.97
2022-10-26T02:46:33.995Z,97854.72
2022-10-26T02:49:02.645Z,97850.16
2022-10-26T02:51:35.281Z,97837.50
2022-10-26T02:54:10.576Z,97838.06
2022-10-26T02:56:44.493Z,97832.38
2022-10-26T02:59:14.827Z,97833.75
2022-10-26T03:01:42.657Z,97820.59
2022-10-26T03:04:11.298Z,97828.09
2022-10-26T03:06:38.465Z,97838.88
2022-10-26T03:09:05.588Z,97828.91
2022-10-26T03:11:32.711Z,97817.84
2022-10-26T03:13:59.791Z,97830.53
2022-10-26T03:16:27.372Z,97832.19
2022-10-26T03:18:54.475Z,97829.75
2022-10-26T03:21:22.894Z,97840.53
2022-10-26T03:23:49.971Z,97832.69
2022-10-26T03:26:17.066Z,97835.41
2022-10-26T03:28:44.205Z,97843.41
2022-10-26T03:31:11.501Z,97836.69
2022-10-26T03:33:38.748Z,97842.63
2022-10-26T03:36:06.458Z,97846.91
2022-10-26T03:38:34.910Z,97839.91
2022-10-26T03:41:02.063Z,97834.78
2022-10-26T03:43:29.204Z,97836.13
2022-10-26T03:45:56.315Z,97841.03
2022-10-26T03:48:23.424Z,97831.38
2022-10-26T03:50:50.505Z,97844.28
2022-10-26T03:53:17.570Z,97841.22
2022-10-26T03:55:46.024Z,97849.53
2022-10-26T03:58:13.169Z,97834.44
2022-10-26T04:00:40.326Z,97829.84
2022-10-26T04:03:07.556Z,97831.72
2022-10-26T04:05:34.673Z,97840.03
2022-10-26T04:08:02.170Z,97837.66
2022-10-26T04:10:29.399Z,97838.44
2022-10-26T04:12:58.153Z,97826.28
2022-10-26T04:15:25.618Z,97836.28
2022-10-26T04:17:56.688Z,97834.09
2022-10-26T04:20:23.900Z,97833.56
2022-10-26T04:22:57.747Z,97840.88
2022-10-26T04:25:27.541Z,97838.97
2022-10-26T04:27:58.867Z,97841.94
2022-10-26T04:30:26.415Z,97852.72
2022-10-26T04:32:53.519Z,97853.78
2022-10-26T04:35:20.726Z,97856.47
2022-10-26T04:37:48.059Z,97859.44
2022-10-26T04:40:16.341Z,97868.13
2022-10-26T04:42:44.217Z,97862.72
2022-10-26T04:45:14.045Z,97858.41
2022-10-26T04:47:41.925Z,97865.44
2022-10-26T04:50:10.683Z,97860.31
2022-10-26T04:52:37.861Z,97857.59
2022-10-26T04:55:05.931Z,97860.56
2022-10-26T04:57:34.043Z,97857.16
2022-10-26T05:00:02.078Z,97861.16
2022-10-26T05:02:30.693Z,97876.50
2022-10-26T05:04:57.902Z,97874.91
2022-10-26T05:07:25.103Z,97872.22
2022-10-26T05:09:52.221Z,97876.81
2022-10-26T05:12:19.505Z,97883.28
2022-10-26T05:14:46.622Z,97873.81
2022-10-26T05:17:13.892Z,97867.53
2022-10-26T05:19:42.520Z,97864.03
2022-10-26T05:22:10.446Z,97858.59
2022-10-26T05:24:37.551Z,97865.94
2022-10-26T05:27:04.667Z,97879.44
2022-10-26T05:29:31.770Z,97886.75
2022-10-26T05:31:58.865Z,97879.72
2022-10-26T05:34:25.951Z,97870.56
2022-10-26T05:36:54.646Z,97865.97
2022-10-26T05:39:21.933Z,97875.63
2022-10-26T05:41:49.037Z,97883.44
2022-10-26T05:44:16.292Z,97886.66
2022-10-26T05:46:43.430Z,97884.28
2022-10-26T05:49:10.617Z,97890.50
2022-10-26T05:51:37.701Z,97890.53
2022-10-26T05:54:07.512Z,97891.88
2022-10-26T05:56:39.641Z,97897.03
2022-10-26T05:59:12.386Z,97907.56
2022-10-26T06:01:56.810Z,97916.44
2022-10-26T06:04:33.006Z,97924.22
2022-10-26T06:07:01.438Z,97909.94
2022-10-26T06:09:30.429Z,97937.97
2022-10-26T06:11:58.078Z,97944.72
2022-10-26T06:14:25.818Z,97948.22
2022-10-26T06:17:08.179Z,97949.88
2022-10-26T06:19:51.947Z,97943.69
2022-10-26T06:22:31.052Z,97959.28
2022-10-26T06:25:09.735Z,97967.44
2022-10-26T06:27:45.433Z,97966.91
2022-10-26T06:30:12.934Z,97988.22
2022-10-26T06:32:43.685Z,97994.41
2022-10-26T06:35:24.653Z,98016.28
2022-10-26T06:37:54.117Z,98017.91
2022-10-26T06:40:23.812Z,98021.13
2022-10-26T06:42:51.398Z,97992.53
2022-10-26T06:45:19.503Z,97987.69
2022-10-26T06:47:56.649Z,97963.97
2022-10-26T06:50:32.799Z,97961.03
2022-10-26T06:53:09.870Z,97970.13
2022-10-26T06:55:42.705Z,97965.06
2022-10-26T06:58:13.732Z,97958.97
2022-10-26T07:00:41.476Z,97949.84
2022-10-26T07:03:08.698Z,97951.41
2022-10-26T07:05:36.085Z,97948.72
2022-10-26T07:08:04.534Z,97943.56
2022-10-26T07:10:31.714Z,97937.88
2022-10-26T07:13:00.177Z,97938.25
2022-10-26T07:15:27.252Z,97944.72
2022-10-26T07:17:54.336Z,97952.59
2022-10-26T07:20:22.196Z,97960.22
2022-10-26T07:22:52.759Z,97954.09
2022-10-26T07:25:20.323Z,97955.44
2022-10-26T07:27:47.685Z,97963.00
2022-10-26T07:30:16.655Z,97966.78
2022-10-26T07:32:44.007Z,97968.97
2022-10-26T07:35:11.583Z,97973.56
2022-10-26T07:37:38.683Z,97969.53
2022-10-26T07:40:07.300Z,97964.09
2022-10-26T07:42:34.666Z,97979.75
2022-10-26T07:45:01.755Z,97993.47
2022-10-26T07:47:30.193Z,97992.41
2022-10-26T07:49:57.295Z,97992.94
2022-10-26T07:52:24.495Z,97999.69
2022-10-26T07:54:51.592Z,97997.25
2022-10-26T07:57:18.718Z,97992.41
2022-10-26T07:59:45.954Z,97995.63
2022-10-26T08:02:13.077Z,97991.59
2022-10-26T08:04:41.599Z,97992.13
2022-10-26T08:07:08.674Z,98000.22
2022-10-26T08:09:35.773Z,98003.72
2022-10-26T08:12:02.928Z,98012.06
2022-10-26T08:14:30.006Z,98015.84
2022-10-26T08:16:57.078Z,98017.19
2022-10-26T08:19:24.256Z,98016.09
2022-10-26T08:21:52.710Z,98020.16
2022-10-26T08:24:19.811Z,98014.22
2022-10-26T08:26:46.944Z,98011.53
2022-10-26T08:29:14.056Z,98005.88
2022-10-26T08:31:41.154Z,98015.03
2022-10-26T08:34:08.726Z,98019.88
2022-10-26T08:36:36.103Z,98015.03
2022-10-26T08:39:04.669Z,98011.81
2022-10-26T08:41:36.581Z,98011.53
2022-10-26T08:44:11.889Z,98016.94
2022-10-26T08:46:44.590Z,98023.13
2022-10-26T08:49:19.821Z,98023.38
2022-10-26T08:51:49.383Z,98018.53
2022-10-26T08:54:22.627Z,98020.97
2022-10-26T08:56:52.835Z,98024.19
2022-10-26T08:59:29.705Z,98015.84
2022-10-26T09:01:56.942Z,98024.72
2022-10-26T09:04:27.672Z,98029.06
2022-10-26T09:07:01.706Z,98020.94
2022-10-26T09:09:45.691Z,98026.09
2022-10-26T09:12:19.711Z,98027.16
2022-10-26T09:14:52.840Z,98021.50
2022-10-26T09:17:31.105Z,98017.19
2022-10-26T09:20:09.956Z,98020.72
2022-10-26T09:22:46.198Z,98008.03
2022-10-26T09:25:18.950Z,98014.75
2022-10-26T09:27:50.787Z,98026.56
2022-10-26T09:30:20.689Z,98020.59
2022-10-26T09:32:49.185Z,98021.63
2022-10-26T09:35:20.230Z,98030.78
2022-10-26T09:37:51.806Z,98027.88
2022-10-26T09:40:27.720Z,98031.56
2022-10-26T09:42:59.027Z,98044.53
2022-10-26T09:45:31.006Z,98029.97
2022-10-26T09:48:06.710Z,98031.56
2022-10-26T09:50:37.058Z,98039.13
2022-10-26T09:53:04.408Z,98032.06
2022-10-26T09:55:34.406Z,98045.84
2022-10-26T09:58:06.944Z,98040.41
2022-10-26T10:03:02.775Z,98027.44
2022-10-26T10:05:50.227Z,98042.19
2022-10-26T10:08:20.166Z,98042.44
2022-10-26T10:10:59.852Z,98041.41
2022-10-26T10:13:29.010Z,98050.28
2022-10-26T10:16:01.326Z,98052.16
2022-10-26T10:18:28.693Z,98053.50
2022-10-26T10:20:58.117Z,98052.69
2022-10-26T10:23:30.997Z,98051.31
2022-10-26T10:26:02.058Z,98051.31
2022-10-26T10:28:30.032Z,98052.13
2022-10-26T10:30:58.986Z,98044.00
2022-10-26T10:33:33.789Z,98042.72
2022-10-26T10:36:01.829Z,98049.16
2022-10-26T10:38:29.211Z,98041.34
2022-10-26T10:40:58.727Z,98049.75
2022-10-26T10:43:27.359Z,98051.59
2022-10-26T10:45:59.567Z,98050.00
2022-10-26T10:48:28.533Z,98056.47
2022-10-26T10:50:57.722Z,98038.69
2022-10-26T10:53:29.652Z,98055.72
2022-10-26T10:56:11.453Z,98053.25
2022-10-26T10:58:50.612Z,98060.84
2022-10-26T11:01:21.668Z,98059.22
2022-10-26T11:04:24.737Z,98062.72
2022-10-26T11:06:54.456Z,98063.00
2022-10-26T11:09:26.841Z,98058.13
2022-10-26T11:11:57.911Z,98049.78
2022-10-26T11:14:30.510Z,98067.59
2022-10-26T11:17:05.091Z,98058.97
2022-10-26T11:19:37.595Z,98061.41
2022-10-26T11:22:10.436Z,98059.25
2022-10-26T11:24:42.054Z,98059.25
2022-10-26T11:27:17.186Z,98061.69
2022-10-26T11:29:52.574Z,98061.16
2022-10-26T11:32:23.481Z,98058.47
2022-10-26T11:34:55.678Z,98069.53
2022-10-26T11:37:28.606Z,98075.00
2022-10-26T11:40:03.816Z,98071.75
2022-10-26T11:42:37.471Z,98069.59
2022-10-26T11:45:15.556Z,98073.66
2022-10-26T11:47:49.016Z,98082.03
2022-10-26T11:50:21.540Z,98077.44
2022-10-26T11:52:53.485Z,98080.94
2022-10-26T11:55:22.638Z,98084.47
2022-10-26T11:57:52.674Z,98095.00
2022-10-26T12:00:22.795Z,98099.34
2022-10-26T12:02:53.812Z,98103.41
2022-10-26T12:05:24.681Z,98094.22
2022-10-26T12:07:56.223Z,98100.19
2022-10-26T12:10:27.162Z,98099.34
2022-10-26T12:13:00.692Z,98095.06
2022-10-26T12:15:40.230Z,98103.16
2022-10-26T12:18:43.244Z,98101.25
2022-10-26T12:21:14.887Z,98102.06
2022-10-26T12:23:54.674Z,98115.00
2022-10-26T12:26:52.453Z,98113.94
2022-10-26T12:29:42.269Z,98116.63
2022-10-26T12:32:49.169Z,98115.28
2022-10-26T12:35:38.221Z,98116.91
2022-10-26T12:38:41.848Z,98121.50
2022-10-26T12:41:19.409Z,98122.59
2022-10-26T12:43:46.749Z,98125.28
2022-10-26T12:46:40.817Z,98115.03
2022-10-26T12:49:55.795Z,98123.41
2022-10-26T12:52:29.336Z,98128.00
2022-10-26T12:55:27.528Z,98132.28
2022-10-26T12:58:09.220Z,98121.22
2022-10-26T13:00:41.684Z,98121.22
2022-10-26T13:03:24.781Z,98115.84
2022-10-26T13:06:17.030Z,98125.56
2022-10-26T13:08:48.814Z,98125.00
2022-10-26T13:11:19.966Z,98128.78
2022-10-26T13:13:54.380Z,98125.56
2022-10-26T13:16:21.735Z,98117.72
2022-10-26T13:18:48.997Z,98122.88
2022-10-26T13:21:17.946Z,98122.31
2022-10-26T13:23:56.087Z,98122.06
2022-10-26T13:26:25.292Z,98120.44
2022-10-26T13:28:54.565Z,98120.97
2022-10-26T13:31:56.423Z,98120.44
2022-10-26T13:34:27.536Z,98114.22
2022-10-26T13:37:03.546Z,98116.63
2022-10-26T13:39:36.565Z,98132.25
2022-10-26T13:42:07.275Z,98140.88
2022-10-26T13:44:42.148Z,98140.59
2022-10-26T13:47:12.305Z,98140.28
2022-10-26T13:49:41.957Z,98133.84
2022-10-26T13:52:15.782Z,98138.16
2022-10-26T13:54:48.636Z,98140.31
2022-10-26T13:57:20.180Z,98133.03
2022-10-26T13:59:47.590Z,98141.13
2022-10-26T14:02:18.170Z,98147.03
2022-10-26T14:04:46.880Z,98147.56
2022-10-26T14:07:19.523Z,98157.78
2022-10-26T14:09:52.399Z,98154.00
2022-10-26T14:12:19.947Z,98159.91
2022-10-26T14:14:47.520Z,98162.09
2022-10-26T14:17:19.904Z,98166.72
2022-10-26T14:19:48.327Z,98157.03
2022-10-26T14:22:23.037Z,98154.63
2022-10-26T14:27:31.070Z,98162.72
2022-10-26T14:30:21.129Z,98167.56
2022-10-26T14:32:45.342Z,98177.84
2022-10-26T14:35:13.267Z,98167.59
2022-10-26T14:37:45.595Z,98165.44
2022-10-26T14:40:17.596Z,98134.72
2022-10-26T14:42:47.613Z,98158.75
2022-10-26T14:45:29.682Z,98160.91
2022-10-26T14:48:06.566Z,98162.81
2022-10-26T14:50:34.196Z,98170.09
2022-10-26T14:53:03.956Z,98181.16
2022-10-26T14:55:45.439Z,98182.75
2022-10-26T14:58:19.869Z,98184.38
2022-10-26T15:01:08.665Z,98193.25
2022-10-26T15:03:38.052Z,98189.22
2022-10-26T15:06:29.181Z,98185.44
2022-10-26T15:08:57.523Z,98185.44
2022-10-26T15:11:25.342Z,98183.03
2022-10-26T15:13:53.409Z,98186.78
2022-10-26T15:16:22.684Z,98188.44
2022-10-26T15:18:53.639Z,98184.13
2022-10-26T15:21:25.378Z,98202.19
2022-10-26T15:23:54.687Z,98200.84
2022-10-26T15:26:21.926Z,98211.91
2022-10-26T15:28:49.624Z,98192.47
2022-10-26T15:31:29.068Z,98208.66
2022-10-26T15:34:14.152Z,98214.34
2022-10-26T15:36:41.961Z,98221.88
2022-10-26T15:39:09.071Z,98209.72
2022-10-26T15:41:40.162Z,98214.88
2022-10-26T15:44:13.779Z,98219.72
2022-10-26T15:46:40.893Z,98226.19
2022-10-26T15:49:14.512Z,98223.19
2022-10-26T15:51:44.727Z,98224.81
2022-10-26T15:54:11.812Z,98230.22
2022-10-26T15:56:39.255Z,98232.38
2022-10-26T15:59:13.807Z,98230.75
2022-10-26T16:01:41.097Z,98234.81
2022-10-26T16:04:09.458Z,98234.22
2022-10-26T16:06:37.054Z,98240.75
2022-10-26T16:09:07.402Z,98234.53
2022-10-26T16:11:34.606Z,98239.66
2022-10-26T16:14:03.790Z,98242.34
2022-10-26T16:16:31.628Z,98242.09
2022-10-26T16:19:18.280Z,98250.72
2022-10-26T16:21:45.842Z,98251.53
2022-10-26T16:24:14.266Z,98249.09
2022-10-26T16:26:41.342Z,98252.63
2022-10-26T16:29:08.489Z,98256.13
2022-10-26T16:31:35.666Z,98225.84
2022-10-26T16:34:04.227Z,98259.63
2022-10-26T16:36:32.252Z,98259.09
2022-10-26T16:38:59.471Z,98260.44
2022-10-26T16:41:28.004Z,98266.38
2022-10-26T16:43:56.123Z,98270.69
2022-10-26T16:46:24.019Z,98267.44
2022-10-26T16:48:51.504Z,98275.53
2022-10-26T16:51:21.429Z,98273.63
2022-10-26T16:53:51.586Z,98270.66
2022-10-26T16:56:21.018Z,98270.91
2022-10-26T16:58:49.565Z,98273.34
2022-10-26T17:01:18.462Z,98273.91
2022-10-26T17:03:46.614Z,98276.06
2022-10-26T17:06:14.416Z,98279.03
2022-10-26T17:08:42.023Z,98277.13
2022-10-26T17:11:11.277Z,98284.44
2022-10-26T17:13:39.588Z,98288.75
2022-10-26T17:16:11.007Z,98295.78
2022-10-26T17:18:39.150Z,98288.47
2022-10-26T17:21:06.545Z,98278.69
2022-10-26T17:23:33.655Z,98304.91
2022-10-26T17:26:01.508Z,98308.97
2022-10-26T17:28:28.717Z,98311.66
2022-10-26T17:31:02.472Z,98310.59
2022-10-26T17:33:31.648Z,98310.31
2022-10-26T17:35:58.735Z,98313.81
2022-10-26T17:38:25.818Z,98319.47
2022-10-26T17:40:52.910Z,98316.19
2022-10-26T17:43:19.994Z,98322.13
2022-10-26T17:45:47.108Z,98323.81
2022-10-26T17:48:14.250Z,98337.28
2022-10-26T17:50:42.689Z,98334.03
2022-10-26T17:53:09.751Z,98337.47
2022-10-26T17:55:36.870Z,98337.84
2022-10-26T17:58:03.954Z,98345.41
2022-10-26T18:00:31.056Z,98344.31
2022-10-26T18:05:26.251Z,98355.69
2022-10-26T18:07:54.981Z,98356.47
2022-10-26T18:10:38.356Z,98367.28
2022-10-26T18:13:05.693Z,98368.31
2022-10-26T18:15:35.013Z,98372.94
2022-10-26T18:18:02.087Z,98369.97
2022-10-26T18:20:29.168Z,98378.06
2022-10-26T18:22:57.762Z,98379.69
2022-10-26T18:25:25.126Z,98369.97
2022-10-26T18:27:52.317Z,98381.06
2022-10-26T18:30:19.459Z,98375.69
2022-10-26T18:32:48.929Z,98382.41
2022-10-26T18:35:16.545Z,98376.75
2022-10-26T18:37:43.897Z,98385.06
2022-10-26T18:40:13.329Z,98376.16
2022-10-26T18:42:40.431Z,98389.38
2022-10-26T18:45:08.159Z,98383.19
2022-10-26T18:47:35.228Z,98386.41
2022-10-26T18:50:02.334Z,98383.47
2022-10-26T18:52:29.445Z,98384.84
2022-10-26T18:54:56.622Z,98390.50
2022-10-26T18:57:25.058Z,98393.50
2022-10-26T18:59:54.981Z,98390.81
2022-10-26T19:02:22.323Z,98401.09
2022-10-26T19:04:49.630Z,98404.03
2022-10-26T19:07:16.853Z,98413.22
2022-10-26T19:09:43.918Z,98409.97
2022-10-26T19:12:11.214Z,98409.97
2022-10-26T19:14:39.674Z,98420.25
2022-10-26T19:17:06.751Z,98422.13
2022-10-26T19:19:33.858Z,98422.13
2022-10-26T19:22:00.966Z,98421.06
2022-10-26T19:24:28.122Z,98423.50
2022-10-26T19:26:55.220Z,98427.81
2022-10-26T19:29:22.352Z,98427.50
2022-10-26T19:31:52.109Z,98422.09
2022-10-26T19:34:19.321Z,98428.84
2022-10-26T19:36:46.694Z,98418.25
2022-10-26T19:39:14.461Z,98436.09
2022-10-26T19:41:41.873Z,98440.69
2022-10-26T19:44:10.460Z,98440.19
2022-10-26T19:46:37.936Z,98437.72
2022-10-26T19:49:06.855Z,98443.94
2022-10-26T19:51:33.969Z,98450.69
2022-10-26T19:54:03.440Z,98442.56
2022-10-26T19:56:31.492Z,98448.47
2022-10-26T19:58:58.912Z,98438.19
2022-10-26T20:01:26.070Z,98447.13
2022-10-26T20:03:53.520Z,98456.00
2022-10-26T20:06:22.119Z,98460.59
2022-10-26T20:08:49.901Z,98460.59
2022-10-26T20:11:18.292Z,98465.16
2022-10-26T20:13:47.057Z,98468.69
2022-10-26T20:16:15.980Z,98464.59
2022-10-26T20:18:47.584Z,98460.31
2022-10-26T20:21:17.431Z,98464.09
2022-10-26T20:23:46.048Z,98459.22
2022-10-26T20:26:14.975Z,98463.34
2022-10-26T20:28:46.305Z,98466.81
2022-10-26T20:31:13.508Z,98473.28
2022-10-26T20:33:40.586Z,98468.72
2022-10-26T20:36:08.100Z,98476.56
2022-10-26T20:38:35.809Z,98476.56
2022-10-26T20:41:07.906Z,98476.03
2022-10-26T20:43:39.292Z,98484.38
2022-10-26T20:46:07.202Z,98474.97
2022-10-26T20:48:35.053Z,98478.44
2022-10-26T20:51:06.376Z,98478.38
2022-10-26T20:53:37.947Z,98483.53
2022-10-26T20:56:22.572Z,98490.28
2022-10-26T20:58:52.601Z,98496.19
2022-10-26T21:01:23.722Z,98486.72
2022-10-26T21:03:51.581Z,98492.63
2022-10-26T21:06:18.861Z,98487.78
2022-10-26T21:08:48.487Z,98493.16
2022-10-26T21:11:17.414Z,98492.69
2022-10-26T21:13:46.380Z,98493.78
2022-10-26T21:16:13.576Z,98490.28
2022-10-26T21:18:40.671Z,98498.91
2022-10-26T21:21:07.871Z,98497.59
2022-10-26T21:23:37.839Z,98502.44
2022-10-26T21:26:05.935Z,98501.09
2022-10-26T21:28:36.247Z,98497.84
2022-10-26T21:31:04.148Z,98495.66
2022-10-26T21:33:31.573Z,98503.22
2022-10-26T21:35:58.671Z,98500.00
2022-10-26T21:38:26.943Z,98500.47
2022-10-26T21:41:02.050Z,98500.22
2022-10-26T21:43:29.148Z,98502.91
2022-10-26T21:45:58.096Z,98508.06
2022-10-26T21:48:25.250Z,98507.47
2022-10-26T21:50:52.481Z,98505.31
2022-10-26T21:53:19.585Z,98506.63
2022-10-26T21:55:46.721Z,98511.75
2022-10-26T21:58:15.973Z,98505.50
2022-10-26T22:00:43.135Z,98513.06
2022-10-26T22:03:11.601Z,98515.00
2022-10-26T22:05:42.312Z,98518.00
2022-10-26T22:08:10.743Z,98521.81
2022-10-26T22:10:37.821Z,98517.75
2022-10-26T22:13:05.067Z,98522.91
2022-10-26T22:15:32.164Z,98520.75
2022-10-26T22:17:59.248Z,98529.66
2022-10-26T22:20:27.710Z,98521.81
2022-10-26T22:22:54.832Z,98526.91
2022-10-26T22:25:22.402Z,98524.19
2022-10-26T22:27:49.816Z,98526.34
2022-10-26T22:30:17.190Z,98522.81
2022-10-26T22:32:44.266Z,98523.66
2022-10-26T22:35:28.677Z,98522.56
2022-10-26T22:37:58.051Z,98519.59
2022-10-26T22:40:25.255Z,98522.06
2022-10-26T22:42:52.664Z,98521.75
2022-10-26T22:45:19.967Z,98523.34
2022-10-26T22:47:47.062Z,98519.00
2022-10-26T22:50:14.298Z,98522.44
2022-10-26T22:52:41.391Z,98520.28
2022-10-26T22:55:10.088Z,98534.38
2022-10-26T22:57:37.203Z,98535.75
2022-10-26T23:00:05.775Z,98533.09
2022-10-26T23:02:32.939Z,98526.63
2022-10-26T23:05:00.032Z,98527.75
2022-10-26T23:07:29.154Z,98525.88
2022-10-26T23:09:56.244Z,98531.78
2022-10-26T23:12:24.647Z,98539.53
2022-10-26T23:14:51.720Z,98544.13
2022-10-26T23:17:18.958Z,98545.22
2022-10-26T23:19:46.080Z,98538.44
2022-10-26T23:22:13.156Z,98535.47
2022-10-26T23:24:40.243Z,98536.75
2022-10-26T23:27:07.457Z,98534.69
2022-10-26T23:29:35.974Z,98533.84
2022-10-26T23:32:03.162Z,98532.47
2022-10-26T23:34:30.233Z,98540.00
2022-10-26T23:36:57.315Z,98538.09
2022-10-26T23:39:24.408Z,98536.22
2022-10-26T23:41:51.493Z,98542.66
2022-10-26T23:44:18.572Z,98534.31
2022-10-26T23:46:46.998Z,98541.13
2022-10-26T23:49:14.149Z,98545.19
2022-10-26T23:51:41.232Z,98539.78
2022-10-26T23:54:08.473Z,98546.28
2022-10-26T23:56:35.560Z,98538.22
2022-10-26T23:59:02.863Z,98545.25
